Time;durP1;ratioP1;P1;durP2;ratioP2;P2;SDS_P1;SDS_P2;PMS_P1;PMS_P2;Temp;Humidity;BMP_temperature;BMP_pressure;BME280_temperature;BME280_humidity;BME280_pressure;Samples;Min_cycle;Max_cycle;Signal;HPM_P1;HPM_P2
2022/12/27 00:01:46;;;;;;;4.77;2.37;;;;;;;2.49;82.72;101381.31;5032799;28;20546;-67
2022/12/27 00:04:13;;;;;;;8.53;2.60;;;;;;;2.40;83.04;101375.47;5029258;28;20208;-68
2022/12/27 00:06:40;;;;;;;7.40;2.73;;;;;;;2.17;83.74;101374.97;5021416;28;20235;-69
2022/12/27 00:09:06;;;;;;;3.63;2.13;;;;;;;2.27;83.67;101375.53;5024869;28;20677;-68
2022/12/27 00:11:32;;;;;;;6.37;2.50;;;;;;;2.18;84.60;101387.22;5032103;28;20297;-68
2022/12/27 00:14:03;;;;;;;4.47;2.17;;;;;;;2.06;85.30;101394.31;5030831;28;20203;-68
2022/12/27 00:16:30;;;;;;;4.27;2.67;;;;;;;2.13;85.42;101391.28;5026367;28;20225;-68
2022/12/27 00:18:57;;;;;;;4.33;2.60;;;;;;;2.00;85.76;101404.38;5036868;28;20200;-68
2022/12/27 00:21:24;;;;;;;4.23;2.20;;;;;;;1.86;86.24;101406.09;5041416;28;20208;-68
2022/12/27 00:23:53;;;;;;;6.10;2.50;;;;;;;1.54;86.71;101383.09;5030556;28;20671;-70
2022/12/27 00:26:29;;;;;;;4.37;2.30;;;;;;;1.63;87.50;101408.03;5029669;28;20216;-68
2022/12/27 00:28:56;;;;;;;9.10;2.30;;;;;;;1.60;87.75;101406.09;5038653;28;20220;-68
2022/12/27 00:31:24;;;;;;;6.30;2.40;;;;;;;1.50;88.17;101411.53;5031882;28;20608;-69
2022/12/27 00:33:53;;;;;;;4.90;2.50;;;;;;;1.47;88.30;101406.09;5032983;28;20191;-69
2022/12/27 00:36:22;;;;;;;4.20;2.47;;;;;;;1.49;88.78;101408.00;5029589;28;20654;-68
2022/12/27 00:38:49;;;;;;;6.43;2.77;;;;;;;1.40;88.85;101402.19;5038814;28;20196;-70
2022/12/27 00:41:16;;;;;;;6.77;2.87;;;;;;;1.71;88.23;101412.03;5027582;28;20201;-67
2022/12/27 00:43:42;;;;;;;3.83;2.60;;;;;;;1.58;88.38;101407.69;5019530;28;20232;-68
2022/12/27 00:46:09;;;;;;;4.47;2.70;;;;;;;1.53;88.69;101415.22;5027623;28;20232;-68
2022/12/27 00:48:36;;;;;;;4.40;2.50;;;;;;;1.59;88.41;101417.34;5030105;28;20205;-67
2022/12/27 00:51:09;;;;;;;6.90;2.50;;;;;;;1.44;88.80;101418.94;5029568;28;20202;-68
2022/12/27 00:53:36;;;;;;;4.20;2.43;;;;;;;1.41;89.20;101418.75;5026565;28;20196;-68
2022/12/27 00:56:12;;;;;;;6.73;3.00;;;;;;;1.32;89.40;101420.75;5030657;28;20783;-68
2022/12/27 00:58:39;;;;;;;7.50;2.80;;;;;;;1.48;89.66;101427.09;5030656;28;20225;-68
2022/12/27 01:01:09;;;;;;;8.53;2.23;;;;;;;1.31;89.66;101425.06;5018834;28;20195;-69
2022/12/27 01:03:37;;;;;;;4.83;2.13;;;;;;;1.18;90.06;101431.16;5029868;28;20249;-67
2022/12/27 01:06:05;;;;;;;5.50;2.50;;;;;;;1.30;90.11;101423.25;5030283;28;20246;-68
2022/12/27 01:08:32;;;;;;;5.23;2.30;;;;;;;1.38;90.54;101437.72;5031003;28;20265;-68
2022/12/27 01:10:58;;;;;;;4.80;2.30;;;;;;;1.25;90.54;101422.97;5028112;28;20295;-68
2022/12/27 01:13:25;;;;;;;5.17;2.03;;;;;;;1.30;90.83;101433.69;5031862;28;20226;-68
2022/12/27 01:15:52;;;;;;;3.90;2.40;;;;;;;1.19;90.41;101421.63;5027499;28;20289;-68
2022/12/27 01:18:19;;;;;;;4.40;2.20;;;;;;;1.10;90.43;101427.13;5030122;28;20622;-68
2022/12/27 01:20:45;;;;;;;6.10;2.27;;;;;;;1.05;90.61;101438.06;5029415;28;20419;-68
2022/12/27 01:23:11;;;;;;;6.57;2.10;;;;;;;0.96;90.82;101440.03;5030931;28;20674;-70
2022/12/27 01:25:38;;;;;;;3.80;1.90;;;;;;;0.75;90.99;101432.53;5030700;28;20198;-68
2022/12/27 01:28:04;;;;;;;4.37;2.43;;;;;;;0.69;91.78;101434.72;5029557;28;20215;-69
2022/12/27 01:30:30;;;;;;;3.83;2.10;;;;;;;0.70;92.18;101448.66;5024325;28;20242;-68
2022/12/27 01:32:57;;;;;;;5.47;2.03;;;;;;;0.67;92.76;101438.03;5028983;28;20199;-68
2022/12/27 01:35:23;;;;;;;5.87;2.30;;;;;;;0.71;93.17;101437.44;5012080;28;20683;-68
2022/12/27 01:37:50;;;;;;;3.97;2.17;;;;;;;0.65;92.81;101437.00;5030155;28;20600;-67
2022/12/27 01:40:17;;;;;;;3.87;2.10;;;;;;;0.57;92.48;101444.31;5017907;28;20195;-68
2022/12/27 01:42:54;;;;;;;4.20;1.77;;;;;;;0.45;92.44;101459.09;5030780;28;20199;-68
2022/12/27 01:45:26;;;;;;;3.27;1.83;;;;;;;0.39;93.08;101464.75;5025298;28;20227;-68
2022/12/27 01:48:02;;;;;;;3.23;1.90;;;;;;;0.39;93.63;101472.56;5030025;28;20223;-69
2022/12/27 01:50:37;;;;;;;5.70;2.00;;;;;;;0.46;93.56;101466.13;5028574;28;20297;-69
2022/12/27 01:53:11;;;;;;;5.73;2.10;;;;;;;0.49;93.77;101474.16;5028028;28;20281;-70
2022/12/27 01:55:51;;;;;;;2.90;2.00;;;;;;;0.48;93.94;101461.91;5012372;28;20228;-68
2022/12/27 01:58:25;;;;;;;4.73;2.23;;;;;;;0.59;93.96;101474.88;5019034;28;20575;-68
2022/12/27 02:00:52;;;;;;;6.40;2.57;;;;;;;0.57;93.67;101478.19;5027856;28;20245;-68
2022/12/27 02:03:33;;;;;;;4.17;2.20;;;;;;;0.62;93.72;101485.53;5027511;28;20199;-68
2022/12/27 02:06:02;;;;;;;3.23;2.13;;;;;;;0.49;93.40;101476.75;5011667;28;20217;-68
2022/12/27 02:08:40;;;;;;;3.30;2.13;;;;;;;0.33;93.43;101477.34;5027589;28;20212;-70
2022/12/27 02:11:08;;;;;;;7.20;2.30;;;;;;;0.21;93.66;101482.59;5024544;28;20223;-68
2022/12/27 02:13:38;;;;;;;5.37;1.73;;;;;;;0.15;93.75;101484.75;5027955;28;20209;-69
2022/12/27 02:16:14;;;;;;;4.70;1.80;;;;;;;0.07;93.88;101485.00;5026917;28;20218;-68
2022/12/27 02:18:41;;;;;;;6.63;2.13;;;;;;;0.06;94.58;101488.41;5029067;28;20202;-70
2022/12/27 02:21:46;;;;;;;5.37;2.03;;;;;;;0.17;94.71;101492.69;5028906;28;20663;-68
2022/12/27 02:24:20;;;;;;;3.73;1.63;;;;;;;0.09;94.25;101494.72;5029809;28;20282;-68
2022/12/27 02:27:24;;;;;;;3.43;2.10;;;;;;;0.19;94.88;101497.19;5028560;28;20879;-68
2022/12/27 02:30:05;;;;;;;5.30;1.97;;;;;;;0.10;94.56;101493.94;5018466;28;20218;-68
2022/12/27 02:32:42;;;;;;;5.97;2.00;;;;;;;0.12;94.91;101483.63;5025487;28;20195;-70
2022/12/27 02:35:18;;;;;;;3.40;2.20;;;;;;;0.05;94.83;101489.19;5033553;28;20202;-68
2022/12/27 02:37:49;;;;;;;2.77;1.80;;;;;;;-0.02;94.81;101487.81;5028765;28;20218;-68
2022/12/27 02:55:09;;;;;;;6.07;1.57;;;;;;;0.26;95.42;101496.84;5026053;28;20229;-70
2022/12/27 02:57:42;;;;;;;3.67;1.57;;;;;;;0.25;95.13;101496.72;5025240;28;20246;-69
2022/12/27 03:03:22;;;;;;;3.23;1.73;;;;;;;0.05;95.29;101489.19;5033098;28;20574;-69
2022/12/27 03:18:01;;;;;;;3.63;1.57;;;;;;;-0.04;96.23;101492.00;5045960;22;20223;-70
2022/12/27 03:26:04;;;;;;;5.27;1.90;;;;;;;0.16;95.77;101501.28;5046653;28;20194;-69
2022/12/27 03:34:31;;;;;;;1.87;1.20;;;;;;;0.76;94.07;101533.41;5022119;28;20211;-69
2022/12/27 03:40:07;;;;;;;2.83;1.50;;;;;;;0.37;94.62;101521.06;5032340;28;20479;-68
2022/12/27 03:46:32;;;;;;;8.40;1.87;;;;;;;0.22;94.90;101517.34;5032443;28;20245;-69
2022/12/27 03:48:21;;;;;;;1.93;1.33;;;;;;;0.06;95.11;101509.22;5030022;28;20222;-69
2022/12/27 03:51:03;;;;;;;3.80;1.63;;;;;;;-0.04;95.37;101512.84;5027866;28;20631;-69
2022/12/27 03:53:37;;;;;;;4.97;1.77;;;;;;;-0.06;95.60;101504.91;5030385;28;20195;-69
2022/12/27 03:56:05;;;;;;;2.73;1.40;;;;;;;-0.12;95.71;101494.06;5031235;28;20195;-69
2022/12/27 03:58:32;;;;;;;4.07;1.77;;;;;;;-0.16;95.49;101491.13;5032354;28;20227;-68
2022/12/27 04:00:59;;;;;;;3.07;1.70;;;;;;;-0.27;95.62;101468.59;5027510;28;20219;-69
2022/12/27 04:03:25;;;;;;;5.03;1.53;;;;;;;-0.23;95.56;101507.97;5026984;28;20613;-69
2022/12/27 04:05:52;;;;;;;4.43;1.80;;;;;;;-0.28;95.34;101496.31;5034923;28;20637;-69
2022/12/27 04:35:47;;;;;;;5.27;1.80;;;;;;;-0.32;96.47;101520.31;5030326;28;20233;-69
2022/12/27 04:38:13;;;;;;;5.33;2.00;;;;;;;-0.43;96.41;101510.78;5031669;28;20571;-69
2022/12/27 04:54:57;;;;;;;7.23;2.03;;;;;;;-0.55;96.20;101509.88;5032259;28;20501;-68
2022/12/27 04:57:25;;;;;;;4.17;2.00;;;;;;;-0.65;96.45;101509.19;5031956;28;20288;-70
2022/12/27 05:02:37;;;;;;;3.23;1.77;;;;;;;-0.66;96.89;101511.66;5031866;28;20199;-68
2022/12/27 05:05:04;;;;;;;5.53;2.13;;;;;;;-0.62;97.04;101511.09;5030403;28;20677;-69
2022/12/27 05:15:45;;;;;;;2.33;1.73;;;;;;;-0.83;96.63;101520.75;5028709;28;20202;-69
2022/12/27 05:18:11;;;;;;;2.53;1.77;;;;;;;-0.74;96.77;101516.28;5029119;28;20237;-69
2022/12/27 05:20:38;;;;;;;4.17;2.20;;;;;;;-0.70;96.83;101531.34;5031090;28;20195;-69
2022/12/27 05:25:49;;;;;;;6.93;2.00;;;;;;;-0.81;96.85;101536.47;5027927;28;20256;-69
2022/12/27 05:28:15;;;;;;;3.90;1.90;;;;;;;-0.75;96.92;101540.50;5019401;28;20222;-69
2022/12/27 05:30:43;;;;;;;4.00;2.17;;;;;;;-0.84;97.11;101536.25;5016809;28;20583;-70
2022/12/27 05:33:09;;;;;;;5.03;2.43;;;;;;;-0.82;97.00;101543.38;5029737;28;20199;-69
2022/12/27 05:35:36;;;;;;;4.13;2.03;;;;;;;-0.94;96.63;101521.66;5016668;28;20198;-70
2022/12/27 05:38:03;;;;;;;5.13;2.07;;;;;;;-0.91;96.93;101545.28;5031133;28;20223;-69
2022/12/27 05:40:29;;;;;;;7.37;2.10;;;;;;;-0.92;97.00;101537.38;5015550;28;20258;-69
2022/12/27 05:43:00;;;;;;;9.27;2.53;;;;;;;-0.88;97.11;101557.59;5030201;28;20214;-68
2022/12/27 05:45:28;;;;;;;2.30;1.80;;;;;;;-0.84;97.22;101568.34;5015044;28;20194;-69
2022/12/27 05:47:54;;;;;;;3.70;2.00;;;;;;;-0.82;97.29;101571.06;5030891;28;20227;-68
2022/12/27 05:50:21;;;;;;;7.10;2.20;;;;;;;-0.85;97.43;101561.34;5028615;28;20699;-69
2022/12/27 05:52:47;;;;;;;7.77;2.13;;;;;;;-0.82;97.27;101564.19;5029493;28;20229;-69
2022/12/27 05:55:14;;;;;;;3.67;2.00;;;;;;;-0.80;97.60;101552.25;5029872;28;20200;-69
2022/12/27 05:57:40;;;;;;;3.23;1.80;;;;;;;-0.73;97.94;101551.91;5029913;28;20490;-68
2022/12/27 06:00:07;;;;;;;4.20;2.00;;;;;;;-0.57;97.67;101568.69;5029020;28;20649;-69
2022/12/27 06:02:35;;;;;;;6.93;2.23;;;;;;;-0.52;97.90;101549.13;5026716;28;20208;-70
2022/12/27 06:05:01;;;;;;;5.67;2.17;;;;;;;-0.26;98.54;101570.22;5027928;28;20199;-69
2022/12/27 06:07:28;;;;;;;7.17;2.00;;;;;;;0.01;98.81;101575.69;5020839;28;20669;-69
2022/12/27 06:09:54;;;;;;;7.27;2.17;;;;;;;0.20;99.07;101574.53;5024529;28;20235;-69
2022/12/27 06:12:20;;;;;;;5.80;2.77;;;;;;;0.36;98.92;101578.25;5030628;28;20278;-70
2022/12/27 06:14:47;;;;;;;9.47;2.87;;;;;;;0.42;99.33;101570.91;5026768;28;20199;-69
2022/12/27 06:17:13;;;;;;;6.40;2.17;;;;;;;0.44;99.09;101588.47;5020496;28;20242;-68
2022/12/27 06:19:39;;;;;;;7.83;1.93;;;;;;;0.37;99.15;101585.28;5029523;28;20199;-68
2022/12/27 06:22:06;;;;;;;3.80;1.90;;;;;;;0.29;98.48;101579.50;5028010;28;20314;-69
2022/12/27 06:24:32;;;;;;;6.83;2.20;;;;;;;0.28;98.37;101591.63;5030042;28;20617;-69
2022/12/27 06:26:59;;;;;;;7.73;2.03;;;;;;;0.36;98.60;101588.69;5025903;28;20222;-69
2022/12/27 06:29:25;;;;;;;5.37;2.10;;;;;;;0.41;98.56;101590.84;5022678;28;20203;-69
2022/12/27 06:31:51;;;;;;;4.73;2.30;;;;;;;0.54;98.45;101587.44;5025249;28;20220;-68
2022/12/27 06:34:18;;;;;;;5.80;2.13;;;;;;;0.58;97.38;101579.03;5026941;28;20199;-69
2022/12/27 06:36:49;;;;;;;7.17;2.27;;;;;;;0.50;96.53;101575.88;5028241;28;20231;-69
2022/12/27 06:39:17;;;;;;;4.57;2.07;;;;;;;0.27;96.25;101578.50;5027895;28;20210;-68
2022/12/27 06:41:43;;;;;;;3.03;2.03;;;;;;;0.41;96.47;101592.56;5026143;28;20273;-68
2022/12/27 06:44:09;;;;;;;7.13;2.30;;;;;;;0.22;96.68;101572.97;5027565;28;20233;-68
2022/12/27 06:46:36;;;;;;;7.33;2.10;;;;;;;0.24;96.38;101594.81;5026941;28;20241;-68
2022/12/27 06:49:03;;;;;;;4.70;2.33;;;;;;;0.23;96.59;101595.59;5011600;28;20682;-69
2022/12/27 06:51:30;;;;;;;4.50;2.40;;;;;;;0.22;96.81;101580.78;5027275;28;20701;-69
2022/12/27 06:53:56;;;;;;;4.70;2.03;;;;;;;0.22;97.15;101599.00;5026490;28;20574;-69
2022/12/27 06:56:22;;;;;;;7.03;2.87;;;;;;;0.11;97.12;101596.41;5020310;28;20667;-69
2022/12/27 06:58:50;;;;;;;5.20;2.60;;;;;;;0.18;97.17;101614.28;5026679;28;20203;-68
2022/12/27 07:01:22;;;;;;;16.33;2.57;;;;;;;0.08;97.34;101602.28;5021459;28;20213;-68
2022/12/27 07:03:54;;;;;;;5.73;2.57;;;;;;;0.36;97.62;101609.53;5026649;28;20205;-69
2022/12/27 07:06:22;;;;;;;5.33;2.50;;;;;;;0.59;97.61;101610.41;5012532;28;20445;-68
2022/12/27 07:08:50;;;;;;;7.20;2.47;;;;;;;0.67;97.26;101620.50;5027343;28;20207;-68
2022/12/27 07:11:18;;;;;;;4.00;2.50;;;;;;;0.59;96.96;101623.47;5025883;28;20268;-68
2022/12/27 07:13:48;;;;;;;7.93;2.50;;;;;;;0.55;97.09;101620.53;5026978;28;20276;-69
2022/12/27 07:16:17;;;;;;;11.80;3.03;;;;;;;0.66;96.84;101624.81;5027391;28;20227;-69
2022/12/27 07:18:45;;;;;;;9.23;2.73;;;;;;;0.54;96.90;101627.44;5013253;28;20202;-69
2022/12/27 07:21:17;;;;;;;5.77;2.80;;;;;;;0.68;96.84;101627.53;5027001;28;20780;-67
2022/12/27 07:23:44;;;;;;;8.93;2.43;;;;;;;0.45;96.76;101621.56;5027091;28;20238;-69
2022/12/27 07:26:13;;;;;;;10.10;3.37;;;;;;;0.50;97.24;101634.91;5026574;28;20238;-69
2022/12/27 07:28:40;;;;;;;8.80;3.10;;;;;;;0.47;97.34;101637.31;5027713;28;20226;-69
2022/12/27 07:31:18;;;;;;;6.97;3.50;;;;;;;0.35;96.74;101626.84;5027516;28;20237;-69
2022/12/27 07:33:45;;;;;;;6.13;2.80;;;;;;;0.18;96.62;101627.31;5026216;28;20745;-69
2022/12/27 07:36:16;;;;;;;5.97;3.00;;;;;;;0.29;97.01;101631.63;5026689;28;20195;-69
2022/12/27 07:38:43;;;;;;;6.20;2.83;;;;;;;0.20;97.19;101633.56;5027847;28;20210;-69
2022/12/27 07:41:11;;;;;;;5.13;2.70;;;;;;;0.06;96.82;101634.22;5025826;28;20191;-69
2022/12/27 07:43:38;;;;;;;6.63;2.83;;;;;;;0.02;96.66;101645.22;5017569;28;20280;-68
2022/12/27 07:46:25;;;;;;;6.50;3.17;;;;;;;0.06;97.05;101642.94;5027873;28;20200;-68
2022/12/27 07:48:54;;;;;;;7.70;2.80;;;;;;;0.18;97.62;101636.03;5026419;28;20206;-68
2022/12/27 07:51:20;;;;;;;4.53;2.57;;;;;;;0.32;97.35;101635.34;5028988;28;20220;-68
2022/12/27 07:53:48;;;;;;;6.13;3.10;;;;;;;0.51;97.46;101655.88;5025209;28;20199;-69
2022/12/27 07:56:20;;;;;;;11.33;3.17;;;;;;;0.44;97.64;101665.75;5029639;28;20655;-69
2022/12/27 07:58:53;;;;;;;7.20;2.80;;;;;;;0.38;97.35;101660.94;5026723;28;20522;-69
2022/12/27 08:01:20;;;;;;;4.97;2.57;;;;;;;0.29;97.26;101655.06;5023980;28;20652;-69
2022/12/27 08:03:47;;;;;;;5.63;2.73;;;;;;;0.43;97.66;101674.34;5026791;28;20302;-69
2022/12/27 08:06:23;;;;;;;7.30;3.00;;;;;;;0.44;97.99;101661.44;5010225;28;20211;-69
2022/12/27 08:08:51;;;;;;;4.40;2.57;;;;;;;0.83;97.78;101673.88;5026076;28;20195;-69
2022/12/27 08:11:18;;;;;;;8.30;3.33;;;;;;;0.72;97.10;101672.16;5027159;28;20222;-68
2022/12/27 08:13:45;;;;;;;10.03;2.90;;;;;;;0.59;96.99;101672.06;5013057;28;20725;-69
2022/12/27 08:16:18;;;;;;;8.40;3.07;;;;;;;0.49;96.74;101680.00;5026388;28;20195;-69
2022/12/27 08:18:44;;;;;;;6.13;3.53;;;;;;;0.42;97.10;101673.44;5025704;28;20679;-69
2022/12/27 08:21:11;;;;;;;5.57;2.83;;;;;;;0.36;97.24;101675.56;5026118;28;20253;-69
2022/12/27 08:23:37;;;;;;;6.13;3.50;;;;;;;0.21;97.31;101667.53;5015644;28;20192;-68
2022/12/27 08:26:04;;;;;;;6.23;3.80;;;;;;;0.28;97.48;101674.09;5018322;28;20257;-69
2022/12/27 08:28:30;;;;;;;9.60;4.00;;;;;;;0.43;97.66;101695.19;5028900;28;20219;-68
2022/12/27 08:30:58;;;;;;;8.23;3.83;;;;;;;0.51;97.99;101692.38;5029788;28;20215;-68
2022/12/27 08:33:26;;;;;;;10.63;4.27;;;;;;;0.95;98.41;101702.53;5015242;28;20199;-69
2022/12/27 08:35:52;;;;;;;10.17;4.10;;;;;;;1.02;98.08;101701.28;5027247;28;20600;-69
2022/12/27 08:38:20;;;;;;;8.73;4.03;;;;;;;1.06;97.87;101682.44;5027771;28;20219;-69
2022/12/27 08:40:46;;;;;;;13.20;4.83;;;;;;;1.25;97.68;101689.09;5028029;28;20203;-69
2022/12/27 08:43:13;;;;;;;10.00;4.43;;;;;;;1.38;97.38;101695.19;5029151;28;20192;-68
2022/12/27 08:45:39;;;;;;;8.23;4.20;;;;;;;1.37;97.53;101699.50;5029613;28;21109;-68
2022/12/27 08:48:06;;;;;;;10.67;3.80;;;;;;;1.44;97.60;101698.22;5029297;28;20223;-69
2022/12/27 08:50:32;;;;;;;8.07;3.80;;;;;;;1.61;97.05;101697.72;5029235;28;20227;-69
2022/12/27 08:53:01;;;;;;;7.23;4.10;;;;;;;1.51;97.43;101684.78;5025838;28;20630;-69
2022/12/27 08:55:29;;;;;;;10.17;4.33;;;;;;;1.54;97.57;101692.84;5029814;28;20292;-68
2022/12/27 08:57:56;;;;;;;8.53;4.03;;;;;;;1.55;97.68;101685.13;5030385;28;20227;-69
2022/12/27 09:00:24;;;;;;;13.53;4.53;;;;;;;1.51;98.10;101677.88;5014169;28;20201;-68
2022/12/27 09:02:50;;;;;;;6.80;4.07;;;;;;;1.61;97.96;101682.06;5023557;28;20201;-69
2022/12/27 09:05:18;;;;;;;11.57;3.97;;;;;;;1.75;98.05;101690.84;5028979;28;20198;-69
2022/12/27 09:07:45;;;;;;;8.33;4.10;;;;;;;1.85;98.09;101682.81;5030301;28;20283;-69
2022/12/27 09:10:14;;;;;;;11.47;3.80;;;;;;;2.04;98.06;101690.25;5030261;28;20227;-69
2022/12/27 09:12:40;;;;;;;10.07;3.70;;;;;;;2.06;98.10;101680.78;5029477;28;20710;-68
2022/12/27 09:15:08;;;;;;;8.07;3.97;;;;;;;2.07;97.85;101680.00;5028750;28;20290;-68
2022/12/27 09:17:35;;;;;;;8.03;3.93;;;;;;;2.17;97.74;101682.41;5031310;28;20230;-69
2022/12/27 09:20:02;;;;;;;8.83;3.40;;;;;;;2.18;97.93;101681.63;5025447;28;20195;-69
2022/12/27 09:22:28;;;;;;;11.40;4.20;;;;;;;2.50;96.48;101696.84;5030485;28;20198;-69
2022/12/27 09:24:54;;;;;;;7.30;3.70;;;;;;;2.45;97.21;101700.88;5027155;28;20625;-68
2022/12/27 09:27:21;;;;;;;7.87;3.20;;;;;;;2.61;95.96;101705.38;5026306;28;20235;-69
2022/12/27 09:29:47;;;;;;;9.77;3.40;;;;;;;2.67;96.16;101716.25;5021071;28;20741;-69
2022/12/27 09:32:14;;;;;;;7.23;3.10;;;;;;;2.91;94.04;101719.59;5020430;28;20304;-66
2022/12/27 09:34:40;;;;;;;8.57;3.10;;;;;;;2.92;93.71;101705.69;5026022;28;20233;-66
2022/12/27 09:37:06;;;;;;;10.40;3.40;;;;;;;2.92;93.93;101701.38;5026806;28;20223;-67
2022/12/27 09:39:33;;;;;;;4.70;2.57;;;;;;;3.02;93.83;101710.72;5022901;28;20196;-67
2022/12/27 09:42:29;;;;;;;10.33;2.90;;;;;;;2.98;94.08;101700.84;5027723;28;20247;-66
2022/12/27 09:45:24;;;;;;;4.70;2.90;;;;;;;2.92;94.61;101692.63;5025779;28;20206;-68
2022/12/27 09:47:57;;;;;;;6.23;2.40;;;;;;;3.17;91.79;101714.31;5026830;28;20225;-66
2022/12/27 09:50:29;;;;;;;5.37;3.00;;;;;;;3.19;92.23;101722.25;5024137;28;20196;-66
2022/12/27 09:53:24;;;;;;;6.10;3.23;;;;;;;3.15;93.08;101715.91;5024967;28;21520;-67
2022/12/27 09:55:57;;;;;;;10.40;3.10;;;;;;;3.28;92.03;101723.78;5025085;28;20229;-67
2022/12/27 09:58:51;;;;;;;12.17;3.70;;;;;;;3.31;92.69;101716.13;5027782;28;20218;-67
2022/12/27 10:01:21;;;;;;;9.00;2.93;;;;;;;3.49;89.99;101708.50;5025446;28;20607;-67
2022/12/27 10:03:48;;;;;;;7.20;2.70;;;;;;;3.43;90.23;101705.50;5026547;28;20282;-66
2022/12/27 10:06:41;;;;;;;5.77;2.50;;;;;;;3.44;92.33;101728.25;5027057;28;20211;-67
2022/12/27 10:09:27;;;;;;;6.57;2.90;;;;;;;3.49;92.00;101724.22;5026637;28;20226;-67
2022/12/27 10:12:25;;;;;;;4.70;2.47;;;;;;;3.72;90.16;101723.06;5026388;28;20219;-67
2022/12/27 10:15:19;;;;;;;5.77;2.47;;;;;;;3.73;90.55;101719.63;4992783;28;20203;-67
2022/12/27 10:18:16;;;;;;;8.00;3.17;;;;;;;3.82;89.26;101714.03;5029506;28;20233;-67
2022/12/27 10:20:58;;;;;;;6.63;3.03;;;;;;;3.89;89.01;101716.22;5025950;28;20195;-67
2022/12/27 10:23:31;;;;;;;7.17;2.83;;;;;;;4.01;87.07;101709.13;5025427;28;20241;-68
2022/12/27 10:26:05;;;;;;;6.03;2.53;;;;;;;3.96;89.28;101702.66;5030044;28;20252;-68
2022/12/27 10:28:38;;;;;;;4.00;2.50;;;;;;;4.09;86.88;101702.63;5025694;28;20218;-68
2022/12/27 10:31:04;;;;;;;7.03;2.70;;;;;;;4.16;86.33;101689.06;5023456;28;20700;-68
2022/12/27 10:33:33;;;;;;;12.10;2.80;;;;;;;4.34;84.59;101697.09;5028071;28;20275;-67
2022/12/27 10:36:06;;;;;;;7.97;2.60;;;;;;;4.30;84.87;101682.91;5025827;28;20201;-67
2022/12/27 10:38:33;;;;;;;6.50;2.43;;;;;;;4.26;84.73;101673.06;5024788;28;20302;-68
2022/12/27 10:41:23;;;;;;;9.03;2.80;;;;;;;4.42;84.81;101689.72;5024236;28;20261;-68
2022/12/27 10:43:51;;;;;;;7.43;2.67;;;;;;;4.49;83.84;101686.63;4995984;28;21798;-68
2022/12/27 10:46:22;;;;;;;7.27;2.77;;;;;;;4.53;83.85;101692.16;5023779;28;20238;-69
2022/12/27 10:49:01;;;;;;;7.60;3.07;;;;;;;4.52;84.30;101698.22;5027682;28;21041;-69
2022/12/27 10:51:49;;;;;;;8.03;2.97;;;;;;;4.59;84.00;101694.22;5023057;28;20649;-69
2022/12/27 10:54:29;;;;;;;5.90;2.63;;;;;;;4.66;83.21;101699.00;5027635;28;20197;-69
2022/12/27 10:57:15;;;;;;;7.37;2.17;;;;;;;4.83;83.75;101692.13;5027624;28;20227;-68
2022/12/27 10:59:42;;;;;;;5.47;2.43;;;;;;;4.88;82.14;101696.81;5008780;28;20223;-69
2022/12/27 11:02:18;;;;;;;6.13;2.97;;;;;;;4.92;82.17;101690.00;5005794;28;20199;-68
2022/12/27 11:04:58;;;;;;;8.07;2.63;;;;;;;4.94;81.28;101675.25;5021487;28;20214;-70
2022/12/27 11:07:33;;;;;;;6.33;2.53;;;;;;;4.97;81.79;101681.56;5023245;28;20306;-68
2022/12/27 11:10:15;;;;;;;5.73;2.67;;;;;;;4.99;82.01;101682.56;5024428;28;20289;-69
2022/12/27 11:12:54;;;;;;;4.40;2.47;;;;;;;5.06;81.71;101673.31;5023532;28;20219;-70
2022/12/27 11:15:21;;;;;;;9.23;2.70;;;;;;;5.18;81.90;101676.59;5024195;28;20249;-68
2022/12/27 11:17:55;;;;;;;5.33;2.70;;;;;;;5.32;82.04;101695.78;5022160;28;20605;-69
2022/12/27 11:20:38;;;;;;;6.43;2.80;;;;;;;5.36;81.05;101692.50;5010888;28;20277;-69
2022/12/27 11:23:12;;;;;;;6.67;2.83;;;;;;;5.40;80.94;101697.09;5022793;28;20699;-69
2022/12/27 11:26:05;;;;;;;8.87;2.80;;;;;;;5.49;79.88;101697.59;5024492;28;20227;-69
2022/12/27 11:28:44;;;;;;;10.00;2.87;;;;;;;5.56;79.25;101683.97;5018873;28;20228;-69
2022/12/27 11:31:14;;;;;;;6.00;2.47;;;;;;;5.64;78.23;101687.94;5027018;28;20201;-69
2022/12/27 11:33:49;;;;;;;6.07;3.10;;;;;;;5.58;79.11;101682.31;5006862;28;20223;-69
2022/12/27 11:36:25;;;;;;;4.07;2.10;;;;;;;5.65;78.38;101684.47;5027168;28;20195;-70
2022/12/27 11:38:51;;;;;;;7.50;2.83;;;;;;;5.74;78.00;101670.91;5026650;28;20203;-68
2022/12/27 11:41:46;;;;;;;6.47;2.50;;;;;;;5.81;78.21;101672.16;5023491;28;20208;-70
2022/12/27 11:44:23;;;;;;;4.37;2.40;;;;;;;5.79;78.52;101674.69;5025737;28;20470;-69
2022/12/27 11:47:02;;;;;;;5.23;2.20;;;;;;;6.02;77.24;101681.22;5026466;28;20225;-69
2022/12/27 11:49:36;;;;;;;4.20;2.20;;;;;;;6.05;77.56;101681.38;5026760;28;20775;-69
2022/12/27 11:52:14;;;;;;;5.60;2.13;;;;;;;6.12;77.07;101672.97;5022545;28;20223;-69
2022/12/27 11:55:09;;;;;;;4.73;2.03;;;;;;;6.23;76.97;101670.88;5023543;28;20205;-69
2022/12/27 11:58:01;;;;;;;6.73;2.20;;;;;;;6.27;76.35;101665.84;5023285;28;20324;-68
2022/12/27 12:00:36;;;;;;;4.67;2.20;;;;;;;6.32;76.38;101668.72;5026187;28;20214;-70
2022/12/27 12:03:59;;;;;;;4.33;1.93;;;;;;;6.42;76.18;101664.84;5030002;28;20208;-70
2022/12/27 12:07:19;;;;;;;8.00;2.47;;;;;;;6.48;75.86;101678.31;4950372;28;20606;-71
2022/12/27 12:10:10;;;;;;;4.17;1.90;;;;;;;6.65;75.39;101674.78;4949730;28;20568;-71
2022/12/27 12:12:58;;;;;;;4.20;1.97;;;;;;;6.71;74.72;101677.72;5030512;28;20310;-70
2022/12/27 12:15:46;;;;;;;5.37;2.10;;;;;;;6.86;73.59;101674.94;5031807;28;20201;-70
2022/12/27 12:18:12;;;;;;;3.97;1.67;;;;;;;7.00;72.52;101681.78;5028403;28;20343;-70
2022/12/27 12:21:00;;;;;;;4.23;2.00;;;;;;;7.14;72.47;101674.53;5027507;28;20805;-70
2022/12/27 12:23:45;;;;;;;3.80;1.63;;;;;;;7.32;71.45;101679.78;5029793;28;20199;-68
2022/12/27 12:26:19;;;;;;;5.63;1.83;;;;;;;7.54;70.30;101664.13;5030578;28;20694;-69
2022/12/27 12:29:04;;;;;;;7.33;2.40;;;;;;;7.74;70.31;101665.03;5029718;28;20199;-69
2022/12/27 12:32:02;;;;;;;7.43;2.27;;;;;;;7.96;69.15;101669.53;5030535;28;20226;-69
2022/12/27 12:34:47;;;;;;;4.07;1.80;;;;;;;7.89;69.07;101664.81;5030459;28;20297;-68
2022/12/27 12:37:32;;;;;;;5.00;1.93;;;;;;;7.73;69.82;101663.25;5025864;28;20276;-68
2022/12/27 12:40:24;;;;;;;3.77;1.90;;;;;;;7.50;70.11;101651.63;5031664;28;20194;-69
2022/12/27 12:42:59;;;;;;;5.67;2.23;;;;;;;7.39;71.57;101677.50;5029144;28;20229;-68
2022/12/27 12:45:46;;;;;;;5.20;1.80;;;;;;;7.32;72.44;101670.16;5028045;28;20244;-70
2022/12/27 12:48:34;;;;;;;4.87;2.10;;;;;;;7.20;72.63;101662.56;5028522;28;20215;-69
2022/12/27 12:51:12;;;;;;;6.60;2.50;;;;;;;7.20;72.93;101669.53;5012167;28;20199;-69
2022/12/27 12:53:44;;;;;;;5.53;2.30;;;;;;;7.29;73.17;101666.47;5026543;28;20238;-69
2022/12/27 12:56:28;;;;;;;3.93;2.10;;;;;;;7.43;72.69;101662.72;5028296;28;20774;-69
2022/12/27 12:59:33;;;;;;;7.47;3.90;;;;;;;7.75;72.46;101664.22;5028685;28;20204;-69
2022/12/27 13:02:27;;;;;;;9.53;2.57;;;;;;;8.02;70.34;101654.00;5026724;28;21579;-68
2022/12/27 13:05:18;;;;;;;4.90;1.73;;;;;;;8.08;70.43;101655.16;5025674;28;20208;-69
2022/12/27 13:08:26;;;;;;;5.73;2.00;;;;;;;8.21;69.50;101653.94;5026791;28;20228;-69
2022/12/27 13:11:31;;;;;;;6.67;2.10;;;;;;;8.25;69.15;101653.25;5029816;28;20220;-69
2022/12/27 13:14:30;;;;;;;5.00;1.83;;;;;;;8.17;69.61;101652.00;5027674;28;20279;-69
2022/12/27 13:17:16;;;;;;;6.57;1.80;;;;;;;8.18;69.60;101644.16;5025343;28;20727;-69
2022/12/27 13:19:55;;;;;;;5.27;1.77;;;;;;;8.13;68.82;101645.69;5025714;28;20199;-69
2022/12/27 13:22:47;;;;;;;4.73;1.90;;;;;;;7.92;69.82;101634.19;5027966;28;20234;-69
2022/12/27 13:25:40;;;;;;;4.97;2.07;;;;;;;7.90;70.52;101634.97;5030023;28;20664;-69
2022/12/27 13:28:33;;;;;;;4.53;1.93;;;;;;;7.72;70.78;101620.16;5024564;28;20289;-69
2022/12/27 13:31:43;;;;;;;3.87;2.00;;;;;;;7.61;70.84;101617.88;5025600;28;20208;-68
2022/12/27 13:34:25;;;;;;;10.30;2.30;;;;;;;7.52;71.76;101624.50;5026689;28;20221;-69
2022/12/27 13:37:09;;;;;;;6.07;1.93;;;;;;;7.46;72.06;101618.06;5027682;28;20645;-69
2022/12/27 13:39:56;;;;;;;6.90;2.17;;;;;;;7.35;72.13;101620.22;5033207;28;20207;-68
2022/12/27 13:42:59;;;;;;;6.20;2.10;;;;;;;7.18;73.03;101626.41;5028993;28;20229;-68
2022/12/27 13:45:34;;;;;;;7.03;1.97;;;;;;;7.14;72.66;101612.19;4996773;28;20198;-69